sensor_id;sensor_type;location;lat;lon;timestamp;P1;durP1;ratioP1;P2;durP2;ratioP2
9970;SDS011;5026;51.494;11.974;2023-02-01T00:02:21;11.73;;;2.93;;
9970;SDS011;5026;51.494;11.974;2023-02-01T00:04:48;15.40;;;3.63;;
9970;SDS011;5026;51.494;11.974;2023-02-01T00:07:15;12.40;;;3.87;;
9970;SDS011;5026;51.494;11.974;2023-02-01T00:09:43;9.23;;;3.43;;
9970;SDS011;5026;51.494;11.974;2023-02-01T00:12:10;7.83;;;3.40;;
9970;SDS011;5026;51.494;11.974;2023-02-01T00:14:37;7.70;;;3.43;;
9970;SDS011;5026;51.494;11.974;2023-02-01T00:17:05;12.77;;;3.47;;
9970;SDS011;5026;51.494;11.974;2023-02-01T00:19:33;8.87;;;3.60;;
9970;SDS011;5026;51.494;11.974;2023-02-01T00:22:00;11.43;;;3.13;;
9970;SDS011;5026;51.494;11.974;2023-02-01T00:24:27;8.30;;;2.90;;
9970;SDS011;5026;51.494;11.974;2023-02-01T00:26:55;9.60;;;2.60;;
9970;SDS011;5026;51.494;11.974;2023-02-01T00:29:22;8.97;;;2.50;;
9970;SDS011;5026;51.494;11.974;2023-02-01T00:31:49;5.83;;;2.50;;
9970;SDS011;5026;51.494;11.974;2023-02-01T00:34:17;10.67;;;2.70;;
9970;SDS011;5026;51.494;11.974;2023-02-01T00:36:45;11.37;;;2.53;;
9970;SDS011;5026;51.494;11.974;2023-02-01T00:39:12;10.33;;;2.60;;
9970;SDS011;5026;51.494;11.974;2023-02-01T00:41:39;11.73;;;2.53;;
9970;SDS011;5026;51.494;11.974;2023-02-01T00:44:07;8.47;;;2.93;;
9970;SDS011;5026;51.494;11.974;2023-02-01T00:46:34;10.97;;;2.50;;
9970;SDS011;5026;51.494;11.974;2023-02-01T00:49:01;10.43;;;2.40;;
9970;SDS011;5026;51.494;11.974;2023-02-01T00:51:29;7.17;;;2.40;;
9970;SDS011;5026;51.494;11.974;2023-02-01T00:53:56;9.80;;;2.53;;
9970;SDS011;5026;51.494;11.974;2023-02-01T00:56:23;10.37;;;2.60;;
9970;SDS011;5026;51.494;11.974;2023-02-01T00:58:52;19.40;;;3.27;;
9970;SDS011;5026;51.494;11.974;2023-02-01T01:01:21;11.30;;;2.63;;
9970;SDS011;5026;51.494;11.974;2023-02-01T01:03:50;6.93;;;2.17;;
9970;SDS011;5026;51.494;11.974;2023-02-01T01:06:19;12.83;;;2.43;;
9970;SDS011;5026;51.494;11.974;2023-02-01T01:08:47;10.13;;;2.70;;
9970;SDS011;5026;51.494;11.974;2023-02-01T01:11:17;6.83;;;2.20;;
9970;SDS011;5026;51.494;11.974;2023-02-01T01:13:45;8.07;;;3.30;;
9970;SDS011;5026;51.494;11.974;2023-02-01T01:16:13;8.50;;;2.53;;
9970;SDS011;5026;51.494;11.974;2023-02-01T01:18:41;10.27;;;3.00;;
9970;SDS011;5026;51.494;11.974;2023-02-01T01:21:09;10.80;;;3.73;;
9970;SDS011;5026;51.494;11.974;2023-02-01T01:23:39;11.57;;;3.63;;
9970;SDS011;5026;51.494;11.974;2023-02-01T01:26:06;9.93;;;2.77;;
9970;SDS011;5026;51.494;11.974;2023-02-01T01:28:35;14.27;;;2.90;;
9970;SDS011;5026;51.494;11.974;2023-02-01T01:31:02;13.40;;;3.20;;
9970;SDS011;5026;51.494;11.974;2023-02-01T01:33:29;11.83;;;3.37;;
9970;SDS011;5026;51.494;11.974;2023-02-01T01:35:58;14.73;;;3.37;;
9970;SDS011;5026;51.494;11.974;2023-02-01T01:38:25;6.87;;;2.53;;
9970;SDS011;5026;51.494;11.974;2023-02-01T01:40:51;9.00;;;2.80;;
9970;SDS011;5026;51.494;11.974;2023-02-01T01:43:19;9.70;;;2.50;;
9970;SDS011;5026;51.494;11.974;2023-02-01T01:45:47;15.47;;;3.37;;
9970;SDS011;5026;51.494;11.974;2023-02-01T01:48:16;7.73;;;2.67;;
9970;SDS011;5026;51.494;11.974;2023-02-01T01:50:47;7.53;;;2.43;;
9970;SDS011;5026;51.494;11.974;2023-02-01T01:53:18;10.27;;;2.50;;
9970;SDS011;5026;51.494;11.974;2023-02-01T01:55:48;6.57;;;2.60;;
9970;SDS011;5026;51.494;11.974;2023-02-01T01:58:17;8.47;;;2.73;;
9970;SDS011;5026;51.494;11.974;2023-02-01T02:00:47;8.43;;;2.90;;
9970;SDS011;5026;51.494;11.974;2023-02-01T02:03:15;9.73;;;3.73;;
9970;SDS011;5026;51.494;11.974;2023-02-01T02:05:45;8.57;;;2.50;;
9970;SDS011;5026;51.494;11.974;2023-02-01T02:08:14;11.13;;;2.90;;
9970;SDS011;5026;51.494;11.974;2023-02-01T02:10:44;14.93;;;3.07;;
9970;SDS011;5026;51.494;11.974;2023-02-01T02:13:26;9.13;;;2.67;;
9970;SDS011;5026;51.494;11.974;2023-02-01T02:15:59;9.97;;;3.17;;
9970;SDS011;5026;51.494;11.974;2023-02-01T02:18:32;15.20;;;3.23;;
9970;SDS011;5026;51.494;11.974;2023-02-01T02:21:22;14.53;;;2.60;;
9970;SDS011;5026;51.494;11.974;2023-02-01T02:26:54;17.53;;;4.43;;
9970;SDS011;5026;51.494;11.974;2023-02-01T02:35:54;8.20;;;3.00;;
9970;SDS011;5026;51.494;11.974;2023-02-01T02:38:27;12.17;;;2.80;;
9970;SDS011;5026;51.494;11.974;2023-02-01T02:41:02;11.47;;;2.93;;
9970;SDS011;5026;51.494;11.974;2023-02-01T02:43:59;7.87;;;2.80;;
9970;SDS011;5026;51.494;11.974;2023-02-01T02:46:51;12.27;;;3.50;;
9970;SDS011;5026;51.494;11.974;2023-02-01T02:49:39;15.83;;;4.20;;
9970;SDS011;5026;51.494;11.974;2023-02-01T02:52:37;15.17;;;3.37;;
9970;SDS011;5026;51.494;11.974;2023-02-01T02:55:28;10.83;;;3.17;;
9970;SDS011;5026;51.494;11.974;2023-02-01T02:58:00;8.50;;;2.67;;
9970;SDS011;5026;51.494;11.974;2023-02-01T03:00:47;8.70;;;3.57;;
9970;SDS011;5026;51.494;11.974;2023-02-01T03:03:35;10.93;;;3.07;;
9970;SDS011;5026;51.494;11.974;2023-02-01T03:06:22;8.80;;;2.57;;
9970;SDS011;5026;51.494;11.974;2023-02-01T03:08:51;14.40;;;2.97;;
9970;SDS011;5026;51.494;11.974;2023-02-01T03:11:21;9.87;;;2.33;;
9970;SDS011;5026;51.494;11.974;2023-02-01T03:14:12;11.70;;;3.20;;
9970;SDS011;5026;51.494;11.974;2023-02-01T03:16:41;10.83;;;3.40;;
9970;SDS011;5026;51.494;11.974;2023-02-01T03:19:14;10.83;;;2.60;;
9970;SDS011;5026;51.494;11.974;2023-02-01T03:21:46;6.83;;;2.80;;
9970;SDS011;5026;51.494;11.974;2023-02-01T03:24:18;7.13;;;2.40;;
9970;SDS011;5026;51.494;11.974;2023-02-01T03:26:58;14.87;;;3.00;;
9970;SDS011;5026;51.494;11.974;2023-02-01T03:29:32;9.80;;;2.37;;
9970;SDS011;5026;51.494;11.974;2023-02-01T03:32:04;10.13;;;2.73;;
9970;SDS011;5026;51.494;11.974;2023-02-01T03:34:31;8.80;;;2.90;;
9970;SDS011;5026;51.494;11.974;2023-02-01T03:36:59;11.40;;;3.53;;
9970;SDS011;5026;51.494;11.974;2023-02-01T03:39:30;6.63;;;2.60;;
9970;SDS011;5026;51.494;11.974;2023-02-01T03:42:03;7.53;;;2.70;;
9970;SDS011;5026;51.494;11.974;2023-02-01T03:44:34;5.87;;;2.83;;
9970;SDS011;5026;51.494;11.974;2023-02-01T03:47:05;10.07;;;2.73;;
9970;SDS011;5026;51.494;11.974;2023-02-01T03:49:35;17.27;;;4.13;;
9970;SDS011;5026;51.494;11.974;2023-02-01T03:52:06;22.07;;;3.30;;
9970;SDS011;5026;51.494;11.974;2023-02-01T03:54:36;12.60;;;2.80;;
9970;SDS011;5026;51.494;11.974;2023-02-01T03:57:05;14.33;;;3.03;;
9970;SDS011;5026;51.494;11.974;2023-02-01T03:59:38;11.80;;;3.13;;
9970;SDS011;5026;51.494;11.974;2023-02-01T04:02:05;8.83;;;2.80;;
9970;SDS011;5026;51.494;11.974;2023-02-01T04:04:32;12.83;;;2.40;;
9970;SDS011;5026;51.494;11.974;2023-02-01T04:07:00;12.47;;;3.07;;
9970;SDS011;5026;51.494;11.974;2023-02-01T04:09:27;12.73;;;2.57;;
9970;SDS011;5026;51.494;11.974;2023-02-01T04:11:55;8.27;;;2.63;;
9970;SDS011;5026;51.494;11.974;2023-02-01T04:14:23;12.03;;;3.00;;
9970;SDS011;5026;51.494;11.974;2023-02-01T04:16:49;13.40;;;4.07;;
9970;SDS011;5026;51.494;11.974;2023-02-01T04:19:16;14.70;;;2.87;;
9970;SDS011;5026;51.494;11.974;2023-02-01T04:21:43;15.03;;;2.70;;
9970;SDS011;5026;51.494;11.974;2023-02-01T04:24:10;14.07;;;3.53;;
9970;SDS011;5026;51.494;11.974;2023-02-01T04:26:37;14.20;;;3.23;;
9970;SDS011;5026;51.494;11.974;2023-02-01T04:29:06;12.07;;;3.00;;
9970;SDS011;5026;51.494;11.974;2023-02-01T04:31:34;19.03;;;3.50;;
9970;SDS011;5026;51.494;11.974;2023-02-01T04:34:01;13.30;;;3.40;;
9970;SDS011;5026;51.494;11.974;2023-02-01T04:36:28;9.13;;;2.47;;
9970;SDS011;5026;51.494;11.974;2023-02-01T04:38:55;8.90;;;2.80;;
9970;SDS011;5026;51.494;11.974;2023-02-01T04:41:22;12.43;;;2.73;;
9970;SDS011;5026;51.494;11.974;2023-02-01T04:43:49;13.27;;;3.20;;
9970;SDS011;5026;51.494;11.974;2023-02-01T04:46:18;12.37;;;2.67;;
9970;SDS011;5026;51.494;11.974;2023-02-01T04:48:46;10.40;;;2.80;;
9970;SDS011;5026;51.494;11.974;2023-02-01T04:51:12;14.83;;;2.90;;
9970;SDS011;5026;51.494;11.974;2023-02-01T04:53:40;14.63;;;2.87;;
9970;SDS011;5026;51.494;11.974;2023-02-01T04:56:07;9.27;;;2.77;;
9970;SDS011;5026;51.494;11.974;2023-02-01T04:58:34;13.87;;;3.13;;
9970;SDS011;5026;51.494;11.974;2023-02-01T05:01:02;12.30;;;3.07;;
9970;SDS011;5026;51.494;11.974;2023-02-01T05:03:31;8.07;;;2.40;;
9970;SDS011;5026;51.494;11.974;2023-02-01T05:05:58;13.87;;;2.50;;
9970;SDS011;5026;51.494;11.974;2023-02-01T05:08:25;17.77;;;3.57;;
9970;SDS011;5026;51.494;11.974;2023-02-01T05:10:53;8.27;;;2.70;;
9970;SDS011;5026;51.494;11.974;2023-02-01T05:13:20;10.47;;;3.43;;
9970;SDS011;5026;51.494;11.974;2023-02-01T05:16:05;11.60;;;3.83;;
9970;SDS011;5026;51.494;11.974;2023-02-01T05:18:34;9.27;;;3.10;;
9970;SDS011;5026;51.494;11.974;2023-02-01T05:21:00;16.70;;;3.27;;
9970;SDS011;5026;51.494;11.974;2023-02-01T05:23:27;12.50;;;2.90;;
9970;SDS011;5026;51.494;11.974;2023-02-01T05:25:57;11.73;;;3.20;;
9970;SDS011;5026;51.494;11.974;2023-02-01T05:28:25;11.10;;;3.40;;
9970;SDS011;5026;51.494;11.974;2023-02-01T05:30:53;12.83;;;2.97;;
9970;SDS011;5026;51.494;11.974;2023-02-01T05:33:20;11.30;;;3.40;;
9970;SDS011;5026;51.494;11.974;2023-02-01T05:35:48;12.27;;;3.23;;
9970;SDS011;5026;51.494;11.974;2023-02-01T05:38:15;13.23;;;3.00;;
9970;SDS011;5026;51.494;11.974;2023-02-01T05:40:42;12.27;;;4.03;;
9970;SDS011;5026;51.494;11.974;2023-02-01T05:43:14;13.00;;;4.27;;
9970;SDS011;5026;51.494;11.974;2023-02-01T05:45:44;13.87;;;3.93;;
9970;SDS011;5026;51.494;11.974;2023-02-01T05:48:10;10.47;;;3.47;;
9970;SDS011;5026;51.494;11.974;2023-02-01T05:50:37;15.03;;;3.90;;
9970;SDS011;5026;51.494;11.974;2023-02-01T05:53:06;13.63;;;3.57;;
9970;SDS011;5026;51.494;11.974;2023-02-01T05:55:32;11.80;;;3.70;;
9970;SDS011;5026;51.494;11.974;2023-02-01T05:57:59;11.13;;;3.80;;
9970;SDS011;5026;51.494;11.974;2023-02-01T06:00:26;10.03;;;3.60;;
9970;SDS011;5026;51.494;11.974;2023-02-01T06:02:53;12.17;;;4.40;;
9970;SDS011;5026;51.494;11.974;2023-02-01T06:05:20;14.63;;;3.80;;
9970;SDS011;5026;51.494;11.974;2023-02-01T06:07:47;11.63;;;3.93;;
9970;SDS011;5026;51.494;11.974;2023-02-01T06:10:17;9.47;;;3.50;;
9970;SDS011;5026;51.494;11.974;2023-02-01T06:12:44;10.37;;;3.90;;
9970;SDS011;5026;51.494;11.974;2023-02-01T06:15:11;10.13;;;3.50;;
9970;SDS011;5026;51.494;11.974;2023-02-01T06:17:40;12.57;;;4.00;;
9970;SDS011;5026;51.494;11.974;2023-02-01T06:20:09;12.33;;;3.13;;
9970;SDS011;5026;51.494;11.974;2023-02-01T06:22:37;12.70;;;3.50;;
9970;SDS011;5026;51.494;11.974;2023-02-01T06:25:04;9.40;;;3.60;;
9970;SDS011;5026;51.494;11.974;2023-02-01T06:27:33;6.93;;;3.17;;
9970;SDS011;5026;51.494;11.974;2023-02-01T06:30:00;11.70;;;3.50;;
9970;SDS011;5026;51.494;11.974;2023-02-01T06:32:28;10.50;;;3.47;;
9970;SDS011;5026;51.494;11.974;2023-02-01T06:34:55;9.77;;;3.00;;
9970;SDS011;5026;51.494;11.974;2023-02-01T06:37:22;14.77;;;4.20;;
9970;SDS011;5026;51.494;11.974;2023-02-01T06:39:51;11.17;;;3.17;;
9970;SDS011;5026;51.494;11.974;2023-02-01T06:42:17;12.07;;;3.37;;
9970;SDS011;5026;51.494;11.974;2023-02-01T06:44:46;8.33;;;3.57;;
9970;SDS011;5026;51.494;11.974;2023-02-01T06:47:13;9.93;;;3.27;;
9970;SDS011;5026;51.494;11.974;2023-02-01T06:49:39;7.10;;;2.83;;
9970;SDS011;5026;51.494;11.974;2023-02-01T06:52:06;11.03;;;3.40;;
9970;SDS011;5026;51.494;11.974;2023-02-01T06:54:33;8.70;;;3.30;;
9970;SDS011;5026;51.494;11.974;2023-02-01T06:57:02;8.77;;;2.97;;
9970;SDS011;5026;51.494;11.974;2023-02-01T06:59:29;13.57;;;3.17;;
9970;SDS011;5026;51.494;11.974;2023-02-01T07:01:57;13.23;;;3.63;;
9970;SDS011;5026;51.494;11.974;2023-02-01T07:04:24;15.70;;;4.23;;
9970;SDS011;5026;51.494;11.974;2023-02-01T07:06:51;13.47;;;3.30;;
9970;SDS011;5026;51.494;11.974;2023-02-01T07:09:18;10.03;;;4.43;;
9970;SDS011;5026;51.494;11.974;2023-02-01T07:11:45;11.13;;;3.97;;
9970;SDS011;5026;51.494;11.974;2023-02-01T07:14:12;9.90;;;3.00;;
9970;SDS011;5026;51.494;11.974;2023-02-01T07:16:39;11.20;;;3.70;;
9970;SDS011;5026;51.494;11.974;2023-02-01T07:19:07;14.77;;;3.13;;
9970;SDS011;5026;51.494;11.974;2023-02-01T07:21:34;11.00;;;3.20;;
9970;SDS011;5026;51.494;11.974;2023-02-01T07:24:01;8.40;;;3.03;;
9970;SDS011;5026;51.494;11.974;2023-02-01T07:26:28;8.63;;;3.03;;
9970;SDS011;5026;51.494;11.974;2023-02-01T07:28:55;7.60;;;2.70;;
9970;SDS011;5026;51.494;11.974;2023-02-01T07:31:22;11.17;;;3.07;;
9970;SDS011;5026;51.494;11.974;2023-02-01T07:33:51;11.07;;;2.97;;
9970;SDS011;5026;51.494;11.974;2023-02-01T07:36:21;12.27;;;3.00;;
9970;SDS011;5026;51.494;11.974;2023-02-01T07:38:48;9.50;;;3.43;;
9970;SDS011;5026;51.494;11.974;2023-02-01T07:41:16;13.70;;;3.97;;
9970;SDS011;5026;51.494;11.974;2023-02-01T07:43:43;6.80;;;3.40;;
9970;SDS011;5026;51.494;11.974;2023-02-01T07:46:11;10.67;;;3.50;;
9970;SDS011;5026;51.494;11.974;2023-02-01T07:48:40;11.43;;;3.20;;
9970;SDS011;5026;51.494;11.974;2023-02-01T07:51:08;11.67;;;3.10;;
9970;SDS011;5026;51.494;11.974;2023-02-01T07:53:38;10.17;;;3.33;;
9970;SDS011;5026;51.494;11.974;2023-02-01T07:56:09;8.70;;;2.97;;
9970;SDS011;5026;51.494;11.974;2023-02-01T07:58:38;11.30;;;2.73;;
9970;SDS011;5026;51.494;11.974;2023-02-01T08:01:05;10.97;;;3.07;;
9970;SDS011;5026;51.494;11.974;2023-02-01T08:03:49;8.07;;;3.27;;
9970;SDS011;5026;51.494;11.974;2023-02-01T08:06:17;11.07;;;3.13;;
9970;SDS011;5026;51.494;11.974;2023-02-01T08:08:47;6.23;;;2.80;;
9970;SDS011;5026;51.494;11.974;2023-02-01T08:11:15;7.63;;;2.50;;
9970;SDS011;5026;51.494;11.974;2023-02-01T08:13:43;8.97;;;3.20;;
9970;SDS011;5026;51.494;11.974;2023-02-01T08:16:10;9.47;;;3.50;;
9970;SDS011;5026;51.494;11.974;2023-02-01T08:18:38;12.17;;;3.27;;
9970;SDS011;5026;51.494;11.974;2023-02-01T08:21:06;7.20;;;2.70;;
9970;SDS011;5026;51.494;11.974;2023-02-01T08:23:35;8.40;;;3.00;;
9970;SDS011;5026;51.494;11.974;2023-02-01T08:26:08;7.10;;;2.97;;
9970;SDS011;5026;51.494;11.974;2023-02-01T08:28:36;14.97;;;3.50;;
9970;SDS011;5026;51.494;11.974;2023-02-01T08:31:04;4.60;;;2.63;;
9970;SDS011;5026;51.494;11.974;2023-02-01T08:33:32;6.60;;;2.30;;
9970;SDS011;5026;51.494;11.974;2023-02-01T08:36:00;7.33;;;2.70;;
9970;SDS011;5026;51.494;11.974;2023-02-01T08:38:27;10.60;;;2.83;;
9970;SDS011;5026;51.494;11.974;2023-02-01T08:40:54;5.17;;;2.30;;
9970;SDS011;5026;51.494;11.974;2023-02-01T08:43:23;5.47;;;2.60;;
9970;SDS011;5026;51.494;11.974;2023-02-01T08:45:50;4.17;;;2.50;;
9970;SDS011;5026;51.494;11.974;2023-02-01T08:48:20;5.80;;;2.60;;
9970;SDS011;5026;51.494;11.974;2023-02-01T08:50:47;8.43;;;3.07;;
9970;SDS011;5026;51.494;11.974;2023-02-01T08:53:14;5.97;;;2.33;;
9970;SDS011;5026;51.494;11.974;2023-02-01T08:55:41;7.70;;;2.87;;
9970;SDS011;5026;51.494;11.974;2023-02-01T08:58:08;7.40;;;2.67;;
9970;SDS011;5026;51.494;11.974;2023-02-01T09:00:36;8.23;;;2.50;;
9970;SDS011;5026;51.494;11.974;2023-02-01T09:03:03;12.53;;;3.10;;
9970;SDS011;5026;51.494;11.974;2023-02-01T09:05:30;9.80;;;4.10;;
9970;SDS011;5026;51.494;11.974;2023-02-01T09:07:57;8.20;;;2.73;;
9970;SDS011;5026;51.494;11.974;2023-02-01T09:10:24;9.20;;;3.77;;
9970;SDS011;5026;51.494;11.974;2023-02-01T09:12:51;12.53;;;3.13;;
9970;SDS011;5026;51.494;11.974;2023-02-01T09:15:18;7.77;;;2.97;;
9970;SDS011;5026;51.494;11.974;2023-02-01T09:17:46;11.23;;;3.77;;
9970;SDS011;5026;51.494;11.974;2023-02-01T09:20:14;6.00;;;3.03;;
9970;SDS011;5026;51.494;11.974;2023-02-01T09:22:41;11.47;;;3.47;;
9970;SDS011;5026;51.494;11.974;2023-02-01T09:25:08;14.23;;;3.90;;
9970;SDS011;5026;51.494;11.974;2023-02-01T09:27:35;10.63;;;3.70;;
9970;SDS011;5026;51.494;11.974;2023-02-01T09:30:02;14.70;;;4.20;;
9970;SDS011;5026;51.494;11.974;2023-02-01T09:32:30;9.13;;;3.53;;
9970;SDS011;5026;51.494;11.974;2023-02-01T09:34:58;9.70;;;3.17;;
9970;SDS011;5026;51.494;11.974;2023-02-01T09:37:25;11.77;;;3.50;;
9970;SDS011;5026;51.494;11.974;2023-02-01T09:39:52;11.93;;;3.77;;
9970;SDS011;5026;51.494;11.974;2023-02-01T09:42:21;11.53;;;3.73;;
9970;SDS011;5026;51.494;11.974;2023-02-01T09:45:05;10.57;;;4.10;;
9970;SDS011;5026;51.494;11.974;2023-02-01T09:47:41;7.23;;;2.80;;
9970;SDS011;5026;51.494;11.974;2023-02-01T09:50:14;8.40;;;2.90;;
9970;SDS011;5026;51.494;11.974;2023-02-01T09:52:46;10.17;;;3.30;;
9970;SDS011;5026;51.494;11.974;2023-02-01T09:55:19;9.40;;;3.37;;
9970;SDS011;5026;51.494;11.974;2023-02-01T09:57:53;3.93;;;2.47;;
9970;SDS011;5026;51.494;11.974;2023-02-01T10:00:24;10.40;;;3.10;;
9970;SDS011;5026;51.494;11.974;2023-02-01T10:02:54;7.20;;;2.90;;
9970;SDS011;5026;51.494;11.974;2023-02-01T10:05:27;8.50;;;2.73;;
9970;SDS011;5026;51.494;11.974;2023-02-01T10:08:11;6.03;;;3.00;;
9970;SDS011;5026;51.494;11.974;2023-02-01T10:10:45;8.03;;;2.83;;
9970;SDS011;5026;51.494;11.974;2023-02-01T10:13:22;10.40;;;3.27;;
9970;SDS011;5026;51.494;11.974;2023-02-01T10:16:07;9.60;;;2.90;;
9970;SDS011;5026;51.494;11.974;2023-02-01T10:18:47;9.03;;;3.20;;
9970;SDS011;5026;51.494;11.974;2023-02-01T10:21:31;6.00;;;2.80;;
9970;SDS011;5026;51.494;11.974;2023-02-01T10:27:14;6.03;;;2.33;;
9970;SDS011;5026;51.494;11.974;2023-02-01T10:29:46;7.53;;;2.93;;
9970;SDS011;5026;51.494;11.974;2023-02-01T10:32:19;12.53;;;2.90;;
9970;SDS011;5026;51.494;11.974;2023-02-01T10:34:48;10.97;;;2.90;;
9970;SDS011;5026;51.494;11.974;2023-02-01T10:37:25;10.50;;;3.37;;
9970;SDS011;5026;51.494;11.974;2023-02-01T10:39:55;10.03;;;2.90;;
9970;SDS011;5026;51.494;11.974;2023-02-01T10:42:25;6.00;;;2.53;;
9970;SDS011;5026;51.494;11.974;2023-02-01T10:44:54;13.53;;;2.30;;
9970;SDS011;5026;51.494;11.974;2023-02-01T10:47:23;5.47;;;2.43;;
9970;SDS011;5026;51.494;11.974;2023-02-01T10:49:52;5.67;;;2.93;;
9970;SDS011;5026;51.494;11.974;2023-02-01T10:52:30;6.90;;;2.30;;
9970;SDS011;5026;51.494;11.974;2023-02-01T10:57:55;8.70;;;2.67;;
9970;SDS011;5026;51.494;11.974;2023-02-01T11:00:23;8.47;;;2.20;;
9970;SDS011;5026;51.494;11.974;2023-02-01T11:02:51;9.03;;;2.53;;
9970;SDS011;5026;51.494;11.974;2023-02-01T11:05:19;9.23;;;2.23;;
9970;SDS011;5026;51.494;11.974;2023-02-01T11:07:50;5.50;;;2.00;;
9970;SDS011;5026;51.494;11.974;2023-02-01T11:10:33;6.47;;;2.13;;
9970;SDS011;5026;51.494;11.974;2023-02-01T11:13:02;3.93;;;1.67;;
9970;SDS011;5026;51.494;11.974;2023-02-01T11:15:29;3.60;;;1.50;;
9970;SDS011;5026;51.494;11.974;2023-02-01T11:17:56;9.43;;;2.13;;
9970;SDS011;5026;51.494;11.974;2023-02-01T11:20:41;5.30;;;2.20;;
9970;SDS011;5026;51.494;11.974;2023-02-01T11:23:14;6.83;;;2.30;;
9970;SDS011;5026;51.494;11.974;2023-02-01T11:25:50;5.63;;;2.30;;
9970;SDS011;5026;51.494;11.974;2023-02-01T11:28:20;12.57;;;2.40;;
9970;SDS011;5026;51.494;11.974;2023-02-01T11:30:49;7.17;;;2.43;;
9970;SDS011;5026;51.494;11.974;2023-02-01T11:33:18;9.77;;;2.77;;
9970;SDS011;5026;51.494;11.974;2023-02-01T11:35:50;4.80;;;2.47;;
9970;SDS011;5026;51.494;11.974;2023-02-01T11:38:21;10.33;;;2.43;;
9970;SDS011;5026;51.494;11.974;2023-02-01T11:40:52;12.73;;;2.97;;
9970;SDS011;5026;51.494;11.974;2023-02-01T11:43:22;6.17;;;2.07;;
9970;SDS011;5026;51.494;11.974;2023-02-01T11:45:54;9.37;;;2.63;;
9970;SDS011;5026;51.494;11.974;2023-02-01T11:48:23;7.43;;;2.33;;
9970;SDS011;5026;51.494;11.974;2023-02-01T11:50:54;8.00;;;2.53;;
9970;SDS011;5026;51.494;11.974;2023-02-01T11:53:38;10.53;;;2.70;;
9970;SDS011;5026;51.494;11.974;2023-02-01T11:56:19;10.97;;;2.63;;
9970;SDS011;5026;51.494;11.974;2023-02-01T12:01:53;6.47;;;2.40;;
9970;SDS011;5026;51.494;11.974;2023-02-01T12:07:35;10.70;;;2.60;;
9970;SDS011;5026;51.494;11.974;2023-02-01T12:10:21;5.93;;;2.53;;
9970;SDS011;5026;51.494;11.974;2023-02-01T12:12:56;7.27;;;2.53;;
9970;SDS011;5026;51.494;11.974;2023-02-01T12:15:38;6.87;;;2.33;;
9970;SDS011;5026;51.494;11.974;2023-02-01T12:18:27;6.67;;;2.37;;
9970;SDS011;5026;51.494;11.974;2023-02-01T12:21:23;6.93;;;3.03;;
9970;SDS011;5026;51.494;11.974;2023-02-01T12:24:07;8.20;;;2.80;;
9970;SDS011;5026;51.494;11.974;2023-02-01T12:26:52;11.63;;;2.20;;
9970;SDS011;5026;51.494;11.974;2023-02-01T12:29:33;10.93;;;2.33;;
9970;SDS011;5026;51.494;11.974;2023-02-01T12:32:18;8.13;;;2.20;;
9970;SDS011;5026;51.494;11.974;2023-02-01T12:35:04;17.87;;;2.80;;
9970;SDS011;5026;51.494;11.974;2023-02-01T12:37:47;11.40;;;2.30;;
9970;SDS011;5026;51.494;11.974;2023-02-01T12:40:34;5.53;;;2.10;;
9970;SDS011;5026;51.494;11.974;2023-02-01T12:43:11;5.63;;;2.20;;
9970;SDS011;5026;51.494;11.974;2023-02-01T12:45:47;9.53;;;2.00;;
9970;SDS011;5026;51.494;11.974;2023-02-01T12:48:22;6.77;;;2.50;;
9970;SDS011;5026;51.494;11.974;2023-02-01T12:50:55;8.87;;;2.27;;
9970;SDS011;5026;51.494;11.974;2023-02-01T12:53:27;8.77;;;2.00;;
9970;SDS011;5026;51.494;11.974;2023-02-01T12:56:02;7.53;;;2.30;;
9970;SDS011;5026;51.494;11.974;2023-02-01T12:58:38;9.23;;;2.57;;
9970;SDS011;5026;51.494;11.974;2023-02-01T13:01:09;9.30;;;2.20;;
9970;SDS011;5026;51.494;11.974;2023-02-01T13:03:41;7.10;;;2.43;;
9970;SDS011;5026;51.494;11.974;2023-02-01T13:06:15;11.20;;;2.73;;
9970;SDS011;5026;51.494;11.974;2023-02-01T13:08:46;10.07;;;3.03;;
9970;SDS011;5026;51.494;11.974;2023-02-01T13:11:20;6.93;;;2.43;;
9970;SDS011;5026;51.494;11.974;2023-02-01T13:13:55;6.67;;;2.50;;
9970;SDS011;5026;51.494;11.974;2023-02-01T13:16:27;9.63;;;2.30;;
9970;SDS011;5026;51.494;11.974;2023-02-01T13:19:00;7.40;;;2.37;;
9970;SDS011;5026;51.494;11.974;2023-02-01T13:21:33;10.97;;;2.80;;
9970;SDS011;5026;51.494;11.974;2023-02-01T13:24:06;7.90;;;2.50;;
9970;SDS011;5026;51.494;11.974;2023-02-01T13:26:49;7.57;;;2.50;;
9970;SDS011;5026;51.494;11.974;2023-02-01T13:29:21;8.87;;;3.10;;
9970;SDS011;5026;51.494;11.974;2023-02-01T13:32:00;9.30;;;2.17;;
9970;SDS011;5026;51.494;11.974;2023-02-01T13:37:40;9.40;;;2.90;;
9970;SDS011;5026;51.494;11.974;2023-02-01T13:40:27;6.23;;;2.43;;
9970;SDS011;5026;51.494;11.974;2023-02-01T13:43:02;5.00;;;2.10;;
9970;SDS011;5026;51.494;11.974;2023-02-01T13:45:35;7.27;;;2.37;;
9970;SDS011;5026;51.494;11.974;2023-02-01T13:48:14;9.33;;;2.23;;
9970;SDS011;5026;51.494;11.974;2023-02-01T13:50:49;8.13;;;2.40;;
9970;SDS011;5026;51.494;11.974;2023-02-01T13:53:18;9.80;;;2.80;;
9970;SDS011;5026;51.494;11.974;2023-02-01T13:55:54;11.03;;;2.63;;
9970;SDS011;5026;51.494;11.974;2023-02-01T13:58:29;8.40;;;2.13;;
9970;SDS011;5026;51.494;11.974;2023-02-01T14:04:02;8.33;;;2.30;;
9970;SDS011;5026;51.494;11.974;2023-02-01T14:09:30;8.03;;;2.70;;
9970;SDS011;5026;51.494;11.974;2023-02-01T14:12:41;8.17;;;2.40;;
9970;SDS011;5026;51.494;11.974;2023-02-01T14:15:21;4.60;;;2.00;;
9970;SDS011;5026;51.494;11.974;2023-02-01T14:17:51;6.50;;;1.93;;
9970;SDS011;5026;51.494;11.974;2023-02-01T14:23:21;7.67;;;2.50;;
9970;SDS011;5026;51.494;11.974;2023-02-01T14:26:06;6.13;;;2.43;;
9970;SDS011;5026;51.494;11.974;2023-02-01T14:28:36;6.77;;;2.40;;
9970;SDS011;5026;51.494;11.974;2023-02-01T14:34:13;6.73;;;2.40;;
9970;SDS011;5026;51.494;11.974;2023-02-01T14:36:44;15.97;;;2.50;;
9970;SDS011;5026;51.494;11.974;2023-02-01T14:39:20;5.87;;;2.20;;
9970;SDS011;5026;51.494;11.974;2023-02-01T14:41:55;14.00;;;3.20;;
9970;SDS011;5026;51.494;11.974;2023-02-01T14:44:26;6.33;;;2.40;;
9970;SDS011;5026;51.494;11.974;2023-02-01T14:50:04;8.03;;;2.60;;
9970;SDS011;5026;51.494;11.974;2023-02-01T14:53:10;7.73;;;2.63;;
9970;SDS011;5026;51.494;11.974;2023-02-01T14:55:44;8.00;;;3.10;;
9970;SDS011;5026;51.494;11.974;2023-02-01T14:58:15;7.90;;;3.20;;
9970;SDS011;5026;51.494;11.974;2023-02-01T15:00:47;4.57;;;2.50;;
9970;SDS011;5026;51.494;11.974;2023-02-01T15:03:23;5.63;;;2.93;;
9970;SDS011;5026;51.494;11.974;2023-02-01T15:06:01;5.83;;;2.60;;
9970;SDS011;5026;51.494;11.974;2023-02-01T15:08:32;13.03;;;3.53;;
9970;SDS011;5026;51.494;11.974;2023-02-01T15:11:02;5.67;;;2.60;;
9970;SDS011;5026;51.494;11.974;2023-02-01T15:13:40;7.90;;;2.30;;
9970;SDS011;5026;51.494;11.974;2023-02-01T15:16:14;10.53;;;3.23;;
9970;SDS011;5026;51.494;11.974;2023-02-01T15:18:42;5.00;;;2.60;;
9970;SDS011;5026;51.494;11.974;2023-02-01T15:21:16;4.77;;;2.87;;
9970;SDS011;5026;51.494;11.974;2023-02-01T15:23:44;8.00;;;2.83;;
9970;SDS011;5026;51.494;11.974;2023-02-01T15:26:23;12.90;;;2.50;;
9970;SDS011;5026;51.494;11.974;2023-02-01T15:28:51;7.03;;;2.93;;
9970;SDS011;5026;51.494;11.974;2023-02-01T15:31:30;6.10;;;2.50;;
9970;SDS011;5026;51.494;11.974;2023-02-01T15:33:59;10.10;;;3.00;;
9970;SDS011;5026;51.494;11.974;2023-02-01T15:36:27;8.17;;;2.43;;
9970;SDS011;5026;51.494;11.974;2023-02-01T15:39:17;8.07;;;2.97;;
9970;SDS011;5026;51.494;11.974;2023-02-01T15:41:48;9.40;;;2.90;;
9970;SDS011;5026;51.494;11.974;2023-02-01T15:44:18;8.77;;;2.90;;
9970;SDS011;5026;51.494;11.974;2023-02-01T15:46:54;3.87;;;1.50;;
9970;SDS011;5026;51.494;11.974;2023-02-01T15:49:24;2.13;;;1.10;;
9970;SDS011;5026;51.494;11.974;2023-02-01T15:51:54;2.70;;;1.37;;
9970;SDS011;5026;51.494;11.974;2023-02-01T15:54:24;2.40;;;1.20;;
9970;SDS011;5026;51.494;11.974;2023-02-01T15:56:53;2.73;;;1.23;;
9970;SDS011;5026;51.494;11.974;2023-02-01T15:59:21;1.60;;;0.90;;
9970;SDS011;5026;51.494;11.974;2023-02-01T16:01:50;3.47;;;0.60;;